Nathalie — OJLP — position and weather

sailwx.info

Track history (hours):
 
Tides and Currents Weather Stations Pressure Air Temp Water Temp Dewpoint Dewpoint Depression Visibility Wind Speed Wind Dir Waves Ship Positions

Nathalie

Last reported at 2014-Oct-27 04:17 UTC. Time now 2014-Oct-31 09:06 UTC.
Position N 59°47' E 022°54'.

Length 64 m; draft 3.3 m.

Type: Cargo ship. MMSI: 230987660.

Date/timePositionNaut miles runAvg speedWind from/ knotsBaromVisibWave heightAir tempDewpointWater temp
2014-Oct-27 04:17N 59°47' E 022°54'5 7.0
2014-Oct-27 03:33N 59°48' E 023°04'6 6.5
2014-Oct-27 02:33N 59°49' E 023°17'7 7.1
2014-Oct-27 01:33N 59°51' E 023°30'8 8.0
2014-Oct-27 00:32N 59°55' E 023°45'7 7.3
2014-Oct-26 23:33N 59°59' E 023°56'40 4.8
2014-Oct-26 15:11N 59°33' E 024°56'1 0.1
2014-Oct-25 22:29N 59°32' E 024°57'42 5.2
2014-Oct-25 14:29N 59°58' E 023°52'9 9.7
2014-Oct-25 13:33N 59°53' E 023°38'9 8.9
2014-Oct-25 12:33N 59°50' E 023°21'43 7.9
2014-Oct-25 07:09N 59°52' E 021°56'6 9.4
2014-Oct-25 06:33N 59°52' E 021°45'9 9.4
2014-Oct-25 05:33N 59°52' E 021°27'99 7.5
2014-Oct-24 16:29N 59°22' E 018°21'8 9.0
2014-Oct-24 15:33N 59°18' E 018°06'5 4.6
2014-Oct-24 14:33N 59°18' E 017°57'  
2014-Oct-20 17:33N 55°60' E 016°15'10 9.7
2014-Oct-20 16:29N 55°59' E 015°57'1010.2
2014-Oct-20 15:33N 55°59' E 015°39'11 9.8
2014-Oct-20 14:28N 55°59' E 015°20'9 0.3
2014-Oct-19 06:08N 55°58' E 015°03'4 6.3
2014-Oct-19 05:33N 55°59' E 015°10'6 6.1
2014-Oct-19 04:33N 55°59' E 015°21'6 6.0
2014-Oct-19 03:33N 55°59' E 015°31'6 5.9
2014-Oct-19 02:33N 55°59' E 015°42'6 5.8
2014-Oct-19 01:32N 55°60' E 015°53'6 5.8
2014-Oct-19 00:33N 56°01' E 016°02'6 6.2
2014-Oct-18 23:33N 56°03' E 016°13'8 6.7
2014-Oct-18 22:25N 56°05' E 016°26'  
Track history (hours):
 
Tides and Currents Weather Stations Pressure Air Temp Water Temp Dewpoint Dewpoint Depression Visibility Wind Speed Wind Dir Waves Ship Positions

Nathalie

Last reported at 2014-Oct-27 04:17 UTC. Time now 2014-Oct-31 09:06 UTC.
Position N 59°47' E 022°54'.

Length 64 m; draft 3.3 m.

Type: Cargo ship. MMSI: 230987660.

Date/timePositionNaut miles runAvg speedWind from/ knotsBaromVisibWave heightAir tempDewpointWater temp
2014-Oct-27 04:17N 59°47' E 022°54'5 7.0
2014-Oct-27 03:33N 59°48' E 023°04'6 6.5
2014-Oct-27 02:33N 59°49' E 023°17'7 7.1
2014-Oct-27 01:33N 59°51' E 023°30'8 8.0
2014-Oct-27 00:32N 59°55' E 023°45'7 7.3
2014-Oct-26 23:33N 59°59' E 023°56'40 4.8
2014-Oct-26 15:11N 59°33' E 024°56'1 0.1
2014-Oct-25 22:29N 59°32' E 024°57'42 5.2
2014-Oct-25 14:29N 59°58' E 023°52'9 9.7
2014-Oct-25 13:33N 59°53' E 023°38'9 8.9
2014-Oct-25 12:33N 59°50' E 023°21'43 7.9
2014-Oct-25 07:09N 59°52' E 021°56'6 9.4
2014-Oct-25 06:33N 59°52' E 021°45'9 9.4
2014-Oct-25 05:33N 59°52' E 021°27'99 7.5
2014-Oct-24 16:29N 59°22' E 018°21'8 9.0
2014-Oct-24 15:33N 59°18' E 018°06'5 4.6
2014-Oct-24 14:33N 59°18' E 017°57'  
2014-Oct-20 17:33N 55°60' E 016°15'10 9.7
2014-Oct-20 16:29N 55°59' E 015°57'1010.2
2014-Oct-20 15:33N 55°59' E 015°39'11 9.8
2014-Oct-20 14:28N 55°59' E 015°20'9 0.3
2014-Oct-19 06:08N 55°58' E 015°03'4 6.3
2014-Oct-19 05:33N 55°59' E 015°10'6 6.1
2014-Oct-19 04:33N 55°59' E 015°21'6 6.0
2014-Oct-19 03:33N 55°59' E 015°31'6 5.9
2014-Oct-19 02:33N 55°59' E 015°42'6 5.8
2014-Oct-19 01:32N 55°60' E 015°53'6 5.8
2014-Oct-19 00:33N 56°01' E 016°02'6 6.2
2014-Oct-18 23:33N 56°03' E 016°13'8 6.7
2014-Oct-18 22:25N 56°05' E 016°26'  

Dump ship's entire track history